Janice E. Strait — WDG4317 — position and weather

sailwx.info

Track history (hours):
 
Tides and Currents Weather Stations Pressure Air Temp Water Temp Dewpoint Dewpoint Depression Visibility Wind Speed Wind Dir Waves Ship Positions

Janice E. Strait

Owner: Western Rivers Boat Management, Inc., paducah, KY. More information available from US FCC via Universal Licensing System and Coast Guard Vessel Documentation Center.

Last reported at 2017-Sep-21 03:56 UTC. Time now 2017-Sep-24 19:17 UTC.
Position N 31°58' W 091°11'.

Length 66 m; draft 3 m.

Type: Towing. MMSI: 367535280.

Date/timePositionNaut miles runAvg speedWind from/ knotsBaromVisibWave heightAir tempDewpointWater temp
2017-Sep-21 03:56N 31°58' W 091°11'5 6.4
2017-Sep-21 03:11N 31°59' W 091°06'2 6.6
2017-Sep-21 02:54N 32°01' W 091°05'3 7.4
2017-Sep-21 02:30N 32°03' W 091°03'3 6.6
2017-Sep-21 02:00N 32°06' W 091°06'2 3.6
2017-Sep-21 01:30N 32°08' W 091°06'2 4.4
2017-Sep-21 01:00N 32°08' W 091°04'3 5.9
2017-Sep-21 00:30N 32°08' W 091°00'4 7.2
2017-Sep-21 00:00N 32°12' W 090°59'4 7.2
2017-Sep-20 23:30N 32°15' W 090°58'3 6.8
2017-Sep-20 23:00N 32°18' W 090°56'1 1.4
2017-Sep-20 22:30N 32°18' W 090°55'0 0.1
2017-Sep-20 22:00N 32°18' W 090°55'0 0.0
2017-Sep-20 21:30N 32°18' W 090°55'0 0.0
2017-Sep-20 21:00N 32°18' W 090°55'0 0.0
2017-Sep-20 20:30N 32°18' W 090°55'0 0.0
2017-Sep-20 20:00N 32°18' W 090°55'0 0.1
2017-Sep-20 19:30N 32°18' W 090°55'2 3.5
2017-Sep-20 19:00N 32°20' W 090°54'3 5.7
2017-Sep-20 18:30N 32°21' W 090°57'3 5.7
2017-Sep-20 18:00N 32°22' W 091°00'3 6.7
2017-Sep-20 17:30N 32°25' W 091°00'3 6.9
2017-Sep-20 17:00N 32°26' W 091°04'3 6.6
2017-Sep-20 16:30N 32°29' W 091°07'4 6.7
2017-Sep-20 15:51N 32°33' W 091°06'2 6.6
2017-Sep-20 15:30N 32°35' W 091°07'3 6.8
2017-Sep-20 15:00N 32°38' W 091°09'3 0.1
2017-Sep-18 15:04N 32°40' W 091°07'0 3.7
2017-Sep-18 14:58N 32°40' W 091°08'3 3.1
2017-Sep-18 14:10N 32°38' W 091°09'1 3.8
2017-Sep-18 13:58N 32°37' W 091°09'2 4.0
2017-Sep-18 13:30N 32°36' W 091°08'2 4.1
2017-Sep-18 13:00N 32°34' W 091°06'2 3.6
2017-Sep-18 12:30N 32°32' W 091°06'2 4.4
2017-Sep-18 12:00N 32°30' W 091°07'2 4.2
2017-Sep-18 11:30N 32°28' W 091°06'2 4.3
2017-Sep-18 11:00N 32°27' W 091°05'2 4.2
2017-Sep-18 10:30N 32°26' W 091°02'2 4.1
2017-Sep-18 10:00N 32°25' W 091°00'2 3.2
2017-Sep-18 09:30N 32°24' W 090°59'1 3.0
2017-Sep-18 09:00N 32°22' W 091°00'2 3.3
2017-Sep-18 08:30N 32°21' W 090°59'2 4.5
2017-Sep-18 08:00N 32°21' W 090°56'2 4.0
2017-Sep-18 07:30N 32°20' W 090°54'2 4.0
2017-Sep-18 07:00N 32°18' W 090°55'0 0.5
2017-Sep-18 06:30N 32°18' W 090°55'0 0.0
2017-Sep-18 06:00N 32°18' W 090°55'0 0.0
2017-Sep-18 05:30N 32°18' W 090°55'0 0.0
2017-Sep-18 05:00N 32°18' W 090°55'0 0.1
2017-Sep-18 04:30N 32°18' W 090°55'0 0.0
2017-Sep-18 04:00N 32°18' W 090°55'0 0.0
2017-Sep-18 03:30N 32°18' W 090°55'0 0.0
2017-Sep-18 03:00N 32°18' W 090°55'0 0.0
2017-Sep-18 02:30N 32°18' W 090°55'0 0.0
2017-Sep-18 02:00N 32°18' W 090°55'0 0.0
2017-Sep-18 01:30N 32°18' W 090°55'0 0.0
2017-Sep-18 01:00N 32°18' W 090°55'0 0.1
2017-Sep-18 00:30N 32°18' W 090°55'0 0.9
2017-Sep-18 00:00N 32°18' W 090°55'2 3.9
2017-Sep-17 23:30N 32°17' W 090°57'1 2.2
2017-Sep-17 23:00N 32°16' W 090°58'2 3.2
2017-Sep-17 22:30N 32°14' W 090°59'2 3.9
2017-Sep-17 22:00N 32°12' W 090°59'2 3.3
2017-Sep-17 21:30N 32°11' W 090°60'2 3.4
2017-Sep-17 21:00N 32°09' W 091°00'2 3.4
2017-Sep-17 20:30N 32°08' W 091°01'2 3.2
2017-Sep-17 19:58N 32°07' W 091°03'3 3.5
2017-Sep-17 19:07N 32°08' W 091°06'0 3.3
2017-Sep-17 19:00N 32°07' W 091°07'5 3.4
2017-Sep-17 17:36N 32°04' W 091°03'0 3.6
2017-Sep-17 17:30N 32°03' W 091°03'  
Track history (hours):
 
Tides and Currents Weather Stations Pressure Air Temp Water Temp Dewpoint Dewpoint Depression Visibility Wind Speed Wind Dir Waves Ship Positions

Janice E. Strait

Owner: Western Rivers Boat Management, Inc., paducah, KY. More information available from US FCC via Universal Licensing System and Coast Guard Vessel Documentation Center.

Last reported at 2017-Sep-21 03:56 UTC. Time now 2017-Sep-24 19:17 UTC.
Position N 31°58' W 091°11'.

Length 66 m; draft 3 m.

Type: Towing. MMSI: 367535280.

Date/timePositionNaut miles runAvg speedWind from/ knotsBaromVisibWave heightAir tempDewpointWater temp
2017-Sep-21 03:56N 31°58' W 091°11'5 6.4
2017-Sep-21 03:11N 31°59' W 091°06'2 6.6
2017-Sep-21 02:54N 32°01' W 091°05'3 7.4
2017-Sep-21 02:30N 32°03' W 091°03'3 6.6
2017-Sep-21 02:00N 32°06' W 091°06'2 3.6
2017-Sep-21 01:30N 32°08' W 091°06'2 4.4
2017-Sep-21 01:00N 32°08' W 091°04'3 5.9
2017-Sep-21 00:30N 32°08' W 091°00'4 7.2
2017-Sep-21 00:00N 32°12' W 090°59'4 7.2
2017-Sep-20 23:30N 32°15' W 090°58'3 6.8
2017-Sep-20 23:00N 32°18' W 090°56'1 1.4
2017-Sep-20 22:30N 32°18' W 090°55'0 0.1
2017-Sep-20 22:00N 32°18' W 090°55'0 0.0
2017-Sep-20 21:30N 32°18' W 090°55'0 0.0
2017-Sep-20 21:00N 32°18' W 090°55'0 0.0
2017-Sep-20 20:30N 32°18' W 090°55'0 0.0
2017-Sep-20 20:00N 32°18' W 090°55'0 0.1
2017-Sep-20 19:30N 32°18' W 090°55'2 3.5
2017-Sep-20 19:00N 32°20' W 090°54'3 5.7
2017-Sep-20 18:30N 32°21' W 090°57'3 5.7
2017-Sep-20 18:00N 32°22' W 091°00'3 6.7
2017-Sep-20 17:30N 32°25' W 091°00'3 6.9
2017-Sep-20 17:00N 32°26' W 091°04'3 6.6
2017-Sep-20 16:30N 32°29' W 091°07'4 6.7
2017-Sep-20 15:51N 32°33' W 091°06'2 6.6
2017-Sep-20 15:30N 32°35' W 091°07'3 6.8
2017-Sep-20 15:00N 32°38' W 091°09'3 0.1
2017-Sep-18 15:04N 32°40' W 091°07'0 3.7
2017-Sep-18 14:58N 32°40' W 091°08'3 3.1
2017-Sep-18 14:10N 32°38' W 091°09'1 3.8
2017-Sep-18 13:58N 32°37' W 091°09'2 4.0
2017-Sep-18 13:30N 32°36' W 091°08'2 4.1
2017-Sep-18 13:00N 32°34' W 091°06'2 3.6
2017-Sep-18 12:30N 32°32' W 091°06'2 4.4
2017-Sep-18 12:00N 32°30' W 091°07'2 4.2
2017-Sep-18 11:30N 32°28' W 091°06'2 4.3
2017-Sep-18 11:00N 32°27' W 091°05'2 4.2
2017-Sep-18 10:30N 32°26' W 091°02'2 4.1
2017-Sep-18 10:00N 32°25' W 091°00'2 3.2
2017-Sep-18 09:30N 32°24' W 090°59'1 3.0
2017-Sep-18 09:00N 32°22' W 091°00'2 3.3
2017-Sep-18 08:30N 32°21' W 090°59'2 4.5
2017-Sep-18 08:00N 32°21' W 090°56'2 4.0
2017-Sep-18 07:30N 32°20' W 090°54'2 4.0
2017-Sep-18 07:00N 32°18' W 090°55'0 0.5
2017-Sep-18 06:30N 32°18' W 090°55'0 0.0
2017-Sep-18 06:00N 32°18' W 090°55'0 0.0
2017-Sep-18 05:30N 32°18' W 090°55'0 0.0
2017-Sep-18 05:00N 32°18' W 090°55'0 0.1
2017-Sep-18 04:30N 32°18' W 090°55'0 0.0
2017-Sep-18 04:00N 32°18' W 090°55'0 0.0
2017-Sep-18 03:30N 32°18' W 090°55'0 0.0
2017-Sep-18 03:00N 32°18' W 090°55'0 0.0
2017-Sep-18 02:30N 32°18' W 090°55'0 0.0
2017-Sep-18 02:00N 32°18' W 090°55'0 0.0
2017-Sep-18 01:30N 32°18' W 090°55'0 0.0
2017-Sep-18 01:00N 32°18' W 090°55'0 0.1
2017-Sep-18 00:30N 32°18' W 090°55'0 0.9
2017-Sep-18 00:00N 32°18' W 090°55'2 3.9
2017-Sep-17 23:30N 32°17' W 090°57'1 2.2
2017-Sep-17 23:00N 32°16' W 090°58'2 3.2
2017-Sep-17 22:30N 32°14' W 090°59'2 3.9
2017-Sep-17 22:00N 32°12' W 090°59'2 3.3
2017-Sep-17 21:30N 32°11' W 090°60'2 3.4
2017-Sep-17 21:00N 32°09' W 091°00'2 3.4
2017-Sep-17 20:30N 32°08' W 091°01'2 3.2
2017-Sep-17 19:58N 32°07' W 091°03'3 3.5
2017-Sep-17 19:07N 32°08' W 091°06'0 3.3
2017-Sep-17 19:00N 32°07' W 091°07'5 3.4
2017-Sep-17 17:36N 32°04' W 091°03'0 3.6
2017-Sep-17 17:30N 32°03' W 091°03'  

Dump ship's entire track history